createdAt,value
2023-05-01T00:00:26.429Z,12.10
2023-05-01T00:05:26.336Z,12.00
2023-05-01T00:10:26.258Z,12.00
2023-05-01T00:15:24.861Z,11.90
2023-05-01T00:20:23.822Z,11.90
2023-05-01T00:25:22.319Z,11.80
2023-05-01T00:30:22.224Z,11.80
2023-05-01T00:35:20.348Z,11.70
2023-05-01T00:40:18.968Z,11.70
2023-05-01T00:45:17.542Z,11.60
2023-05-01T00:50:18.678Z,11.50
2023-05-01T00:55:17.756Z,11.50
2023-05-01T01:00:19.690Z,11.40
2023-05-01T01:05:22.947Z,11.40
2023-05-01T01:10:31.766Z,11.40
2023-05-01T01:15:35.944Z,11.30
2023-05-01T01:20:42.714Z,11.30
2023-05-01T01:26:10.749Z,11.20
2023-05-01T01:31:16.559Z,11.20
2023-05-01T01:36:21.435Z,11.10
2023-05-01T01:41:28.057Z,11.10
2023-05-01T01:46:28.563Z,11.00
2023-05-01T01:51:30.280Z,11.00
2023-05-01T01:56:30.683Z,11.00
2023-05-01T02:01:31.054Z,11.00
2023-05-01T02:06:33.256Z,10.90
2023-05-01T02:11:32.249Z,10.90
2023-05-01T02:16:31.496Z,10.90
2023-05-01T02:21:32.753Z,10.90
2023-05-01T02:26:32.473Z,10.90
2023-05-01T02:31:32.219Z,10.80
2023-05-01T02:36:32.400Z,10.80
2023-05-01T02:41:34.669Z,10.80
2023-05-01T02:46:37.217Z,10.70
2023-05-01T02:51:38.795Z,10.70
2023-05-01T02:56:37.244Z,10.70
2023-05-01T03:01:36.212Z,10.60
2023-05-01T03:06:34.722Z,10.60
2023-05-01T03:11:34.538Z,10.60
2023-05-01T03:16:34.162Z,10.60
2023-05-01T03:21:34.212Z,10.50
2023-05-01T03:26:34.344Z,10.50
2023-05-01T03:31:32.892Z,10.50
2023-05-01T03:36:34.174Z,10.40
2023-05-01T03:41:34.472Z,10.40
2023-05-01T03:46:47.604Z,10.40
2023-05-01T03:51:52.110Z,10.40
2023-05-01T03:56:52.026Z,10.30
2023-05-01T04:01:51.806Z,10.30
2023-05-01T04:06:50.489Z,10.20
2023-05-01T04:11:49.219Z,10.20
2023-05-01T04:16:49.805Z,10.20
2023-05-01T04:21:48.792Z,10.20
2023-05-01T04:26:47.295Z,10.20
2023-05-01T04:31:46.156Z,10.20
2023-05-01T04:36:46.064Z,10.20
2023-05-01T04:41:44.576Z,10.20
2023-05-01T04:46:43.211Z,10.30
2023-05-01T04:51:41.858Z,10.30
2023-05-01T04:56:44.487Z,10.30
2023-05-01T05:01:43.071Z,10.40
2023-05-01T05:06:41.795Z,10.40
2023-05-01T05:11:48.076Z,10.50
2023-05-01T05:16:52.884Z,10.60
2023-05-01T05:21:51.639Z,10.70
2023-05-01T05:26:51.216Z,10.80
2023-05-01T05:31:50.227Z,10.90
2023-05-01T05:36:49.457Z,11.00
2023-05-01T05:41:55.427Z,11.10
2023-05-01T05:46:54.069Z,11.30
2023-05-01T05:52:00.505Z,11.40
2023-05-01T05:57:01.585Z,11.50
2023-05-01T06:02:00.782Z,11.60
2023-05-01T06:07:00.694Z,11.70
2023-05-01T06:12:00.676Z,11.70
2023-05-01T06:16:59.390Z,11.80
2023-05-01T06:21:57.933Z,11.90
2023-05-01T06:26:56.321Z,12.00
2023-05-01T06:31:56.468Z,12.10
2023-05-01T06:36:55.473Z,12.20
2023-05-01T06:41:54.793Z,12.30
2023-05-01T06:47:04.035Z,12.50
2023-05-01T06:52:02.881Z,12.60
2023-05-01T06:57:01.736Z,12.80
2023-05-01T07:02:00.316Z,12.90
2023-05-01T07:07:00.199Z,13.00
2023-05-01T07:12:00.033Z,13.20
2023-05-01T07:16:58.827Z,13.40
2023-05-01T07:21:57.413Z,13.70
2023-05-01T07:26:58.291Z,13.80
2023-05-01T07:31:57.113Z,13.80
2023-05-01T07:36:56.778Z,14.00
2023-05-01T07:41:59.046Z,14.20
2023-05-01T07:47:03.707Z,14.50
2023-05-01T07:52:02.509Z,14.70
2023-05-01T07:57:04.745Z,14.70
2023-05-01T08:02:03.888Z,14.90
2023-05-01T08:07:02.531Z,15.00
2023-05-01T08:12:04.240Z,15.00
2023-05-01T08:17:02.700Z,15.30
2023-05-01T08:22:01.179Z,15.60
2023-05-01T08:26:59.714Z,15.90
2023-05-01T08:32:00.143Z,16.20
2023-05-01T08:36:58.654Z,16.30
2023-05-01T08:41:58.753Z,16.50
2023-05-01T08:47:08.817Z,16.70
2023-05-01T08:52:08.999Z,17.00
2023-05-01T08:57:10.607Z,17.30
2023-05-01T09:02:11.505Z,17.50
2023-05-01T09:07:10.556Z,17.80
2023-05-01T09:12:16.981Z,18.00
2023-05-01T09:17:16.997Z,18.10
2023-05-01T09:22:16.193Z,18.30
2023-05-01T09:27:14.873Z,18.50
2023-05-01T09:32:21.238Z,18.50
2023-05-01T09:37:30.672Z,18.70
2023-05-01T09:42:29.193Z,18.80
2023-05-01T09:47:30.061Z,19.00
2023-05-01T09:52:29.470Z,19.00
2023-05-01T09:57:38.597Z,19.30
2023-05-01T10:02:38.723Z,19.50
2023-05-01T10:07:37.377Z,19.80
2023-05-01T10:12:37.438Z,20.00
2023-05-01T10:17:37.684Z,20.10
2023-05-01T10:22:36.624Z,20.30
2023-05-01T10:27:36.679Z,20.60
2023-05-01T10:32:36.535Z,20.90
2023-05-01T10:37:41.405Z,21.10
2023-05-01T10:43:13.075Z,21.20
2023-05-01T10:48:11.398Z,21.40
2023-05-01T10:53:21.074Z,21.60
2023-05-01T10:58:57.414Z,21.70
2023-05-01T11:03:56.805Z,21.70
2023-05-01T11:08:56.949Z,21.80
2023-05-01T11:14:02.999Z,21.90
2023-05-01T11:19:01.628Z,22.00
2023-05-01T11:24:01.241Z,22.00
2023-05-01T11:29:02.105Z,22.20
2023-05-01T11:34:00.927Z,22.40
2023-05-01T11:39:02.517Z,22.60
2023-05-01T11:44:01.270Z,22.70
2023-05-01T11:49:01.245Z,22.80
2023-05-01T11:54:02.036Z,22.80
2023-05-01T11:59:10.516Z,23.00
2023-05-01T12:04:09.822Z,23.10
2023-05-01T12:09:09.969Z,23.30
2023-05-01T12:14:08.754Z,23.50
2023-05-01T12:19:07.853Z,23.70
2023-05-01T12:24:12.055Z,23.90
2023-05-01T12:29:11.625Z,24.00
2023-05-01T12:34:10.137Z,24.20
2023-05-01T12:39:12.189Z,24.30
2023-05-01T12:44:24.304Z,24.40
2023-05-01T12:49:23.628Z,24.60
2023-05-01T12:54:25.368Z,24.70
2023-05-01T12:59:25.542Z,24.90
2023-05-01T13:04:24.481Z,25.10
2023-05-01T13:09:24.984Z,25.30
2023-05-01T13:14:23.520Z,25.50
2023-05-01T13:19:29.700Z,25.50
2023-05-01T13:24:39.642Z,25.60
2023-05-01T13:29:39.246Z,25.70
2023-05-01T13:34:37.644Z,25.80
2023-05-01T13:39:37.658Z,25.80
2023-05-01T13:44:45.269Z,25.90
2023-05-01T13:49:44.623Z,26.10
2023-05-01T13:54:44.641Z,26.20
2023-05-01T13:59:45.046Z,26.30
2023-05-01T14:04:44.277Z,26.30
2023-05-01T14:09:46.072Z,26.30
2023-05-01T14:14:48.992Z,26.30
2023-05-01T14:19:47.926Z,26.30
2023-05-01T14:24:47.769Z,26.30
2023-05-01T14:29:47.133Z,26.10
2023-05-01T14:34:46.710Z,26.00
2023-05-01T14:39:45.247Z,25.60
2023-05-01T14:44:45.170Z,25.40
2023-05-01T14:49:43.733Z,25.30
2023-05-01T14:54:48.638Z,25.10
2023-05-01T14:59:48.669Z,25.10
2023-05-01T15:04:47.157Z,25.10
2023-05-01T15:09:46.688Z,24.90
2023-05-01T15:14:45.167Z,24.60
2023-05-01T15:19:45.032Z,24.50
2023-05-01T15:24:43.172Z,24.50
2023-05-01T15:29:42.086Z,24.40
2023-05-01T15:34:41.612Z,24.40
2023-05-01T15:39:41.704Z,24.20
2023-05-01T15:44:40.198Z,24.10
2023-05-01T15:49:38.761Z,23.90
2023-05-01T15:54:37.912Z,23.80
2023-05-01T15:59:40.306Z,23.70
2023-05-01T16:04:39.823Z,23.60
2023-05-01T16:09:38.438Z,23.50
2023-05-01T16:14:41.488Z,23.40
2023-05-01T16:19:41.830Z,23.30
2023-05-01T16:24:40.387Z,23.20
2023-05-01T16:29:41.267Z,23.10
2023-05-01T16:34:41.519Z,23.00
2023-05-01T16:39:39.809Z,23.00
2023-05-01T16:44:39.462Z,23.00
2023-05-01T16:49:40.996Z,23.10
2023-05-01T16:54:39.171Z,23.10
2023-05-01T16:59:40.428Z,23.20
2023-05-01T17:04:39.375Z,23.20
2023-05-01T17:09:37.888Z,23.20
2023-05-01T17:14:36.202Z,23.20
2023-05-01T17:19:39.155Z,23.10
2023-05-01T17:24:37.913Z,23.00
2023-05-01T17:29:36.637Z,22.90
2023-05-01T17:34:36.513Z,22.80
2023-05-01T17:39:34.728Z,22.60
2023-05-01T17:44:33.968Z,22.50
2023-05-01T17:49:33.783Z,22.30
2023-05-01T17:54:33.761Z,22.20
2023-05-01T17:59:32.370Z,22.00
2023-05-01T18:04:30.869Z,21.90
2023-05-01T18:09:29.419Z,21.80
2023-05-01T18:14:30.529Z,21.70
2023-05-01T18:19:29.337Z,21.50
2023-05-01T18:24:27.546Z,21.40
2023-05-01T18:29:26.059Z,21.30
2023-05-01T18:34:26.034Z,21.20
2023-05-01T18:39:24.514Z,20.90
2023-05-01T18:44:23.480Z,21.00
2023-05-01T18:49:24.254Z,21.00
2023-05-01T18:54:24.976Z,20.80
2023-05-01T18:59:24.259Z,20.50
2023-05-01T19:04:22.805Z,20.10
2023-05-01T19:09:20.978Z,19.90
2023-05-01T19:14:21.759Z,19.80
2023-05-01T19:19:20.667Z,19.70
2023-05-01T19:24:18.843Z,19.60
2023-05-01T19:29:18.038Z,19.60
2023-05-01T19:34:17.613Z,19.50
2023-05-01T19:39:16.140Z,19.40
2023-05-01T19:44:14.866Z,19.30
2023-05-01T19:49:13.433Z,19.20
2023-05-01T19:54:13.311Z,19.10
2023-05-01T19:59:11.818Z,19.00
2023-05-01T20:04:10.410Z,18.90
2023-05-01T20:09:08.986Z,18.80
2023-05-01T20:14:08.830Z,18.80
2023-05-01T20:19:07.302Z,18.70
2023-05-01T20:24:06.025Z,18.60
2023-05-01T20:29:04.602Z,18.50
2023-05-01T20:34:04.494Z,18.50
2023-05-01T20:39:03.005Z,18.40
2023-05-01T20:44:02.795Z,18.40
2023-05-01T20:49:01.536Z,18.30
2023-05-01T20:54:01.400Z,18.30
2023-05-01T20:59:00.542Z,18.20
2023-05-01T21:04:00.108Z,18.10
2023-05-01T21:09:02.271Z,18.00
2023-05-01T21:14:01.046Z,17.90
2023-05-01T21:18:59.509Z,17.80
2023-05-01T21:23:57.948Z,17.70
2023-05-01T21:28:59.089Z,17.60
2023-05-01T21:34:02.705Z,17.50
2023-05-01T21:39:02.548Z,17.50
2023-05-01T21:44:04.769Z,17.40
2023-05-01T21:49:03.334Z,17.30
2023-05-01T21:54:02.765Z,17.20
2023-05-01T21:59:03.897Z,17.10
2023-05-01T22:04:02.672Z,17.10
2023-05-01T22:09:00.824Z,17.00
2023-05-01T22:14:02.305Z,17.00
2023-05-01T22:19:01.725Z,16.90
2023-05-01T22:24:00.155Z,16.80
2023-05-01T22:28:58.439Z,16.80
2023-05-01T22:33:57.035Z,16.80
2023-05-01T22:38:56.507Z,16.60
2023-05-01T22:43:55.366Z,16.80
2023-05-01T22:48:53.872Z,16.80
2023-05-01T22:53:52.374Z,16.70
2023-05-01T22:58:52.209Z,16.80
2023-05-01T23:03:51.778Z,16.70
2023-05-01T23:08:53.956Z,16.60
2023-05-01T23:13:54.315Z,16.70
2023-05-01T23:18:52.800Z,16.60
2023-05-01T23:23:51.412Z,16.60
2023-05-01T23:28:49.921Z,16.50
2023-05-01T23:33:49.758Z,16.50
2023-05-01T23:38:48.785Z,16.40
2023-05-01T23:43:48.506Z,16.40
2023-05-01T23:48:47.092Z,16.40
2023-05-01T23:53:46.981Z,16.30
2023-05-01T23:58:45.481Z,16.20
